createdAt,value
2022-08-23T00:02:43.464Z,99.90
2022-08-23T00:08:48.658Z,99.90
2022-08-23T00:14:53.980Z,99.90
2022-08-23T00:20:56.098Z,99.90
2022-08-23T00:27:16.769Z,99.90
2022-08-23T00:33:18.537Z,99.90
2022-08-23T00:39:21.167Z,99.90
2022-08-23T00:45:46.357Z,99.90
2022-08-23T00:52:17.427Z,99.90
2022-08-23T00:58:21.363Z,99.90
2022-08-23T01:04:24.681Z,99.90
2022-08-23T01:10:30.949Z,99.90
2022-08-23T01:16:43.369Z,99.90
2022-08-23T01:23:02.749Z,99.90
2022-08-23T01:29:06.771Z,99.90
2022-08-23T01:35:09.158Z,99.90
2022-08-23T01:41:11.065Z,99.90
2022-08-23T01:47:12.964Z,99.90
2022-08-23T01:53:16.135Z,99.90
2022-08-23T01:59:22.723Z,99.90
2022-08-23T02:05:30.703Z,99.90
2022-08-23T02:11:41.374Z,99.90
2022-08-23T02:17:44.489Z,99.90
2022-08-23T02:23:47.568Z,99.90
2022-08-23T02:29:51.650Z,99.90
2022-08-23T02:35:55.247Z,99.90
2022-08-23T02:42:00.528Z,99.90
2022-08-23T02:48:05.363Z,99.90
2022-08-23T02:54:16.554Z,99.90
2022-08-23T03:00:19.373Z,99.90
2022-08-23T03:06:25.415Z,99.90
2022-08-23T03:12:28.367Z,99.90
2022-08-23T03:18:31.907Z,99.90
2022-08-23T03:24:36.494Z,99.90
2022-08-23T03:30:38.669Z,99.90
2022-08-23T03:36:42.045Z,99.90
2022-08-23T03:42:44.421Z,99.90
2022-08-23T03:48:53.214Z,99.90
2022-08-23T03:54:55.578Z,99.90
2022-08-23T04:00:57.806Z,99.90
2022-08-23T04:07:01.055Z,99.90
2022-08-23T04:13:03.134Z,99.90
2022-08-23T04:19:06.835Z,99.90
2022-08-23T04:25:29.927Z,99.90
2022-08-23T04:31:34.752Z,99.90
2022-08-23T04:37:37.883Z,99.90
2022-08-23T04:43:40.948Z,99.90
2022-08-23T04:49:44.036Z,99.90
2022-08-23T04:55:46.261Z,99.90
2022-08-23T05:01:49.953Z,99.90
2022-08-23T05:07:51.742Z,99.90
2022-08-23T05:13:53.891Z,99.90
2022-08-23T05:19:55.794Z,99.90
2022-08-23T05:25:58.414Z,99.90
2022-08-23T05:32:04.645Z,99.90
2022-08-23T05:38:06.671Z,99.90
2022-08-23T05:44:10.479Z,99.90
2022-08-23T05:50:16.266Z,99.90
2022-08-23T05:56:27.086Z,99.90
2022-08-23T06:02:28.932Z,99.90
2022-08-23T06:08:31.165Z,99.90
2022-08-23T06:14:33.847Z,99.90
2022-08-23T06:20:37.422Z,99.90
2022-08-23T06:26:43.021Z,99.90
2022-08-23T06:32:44.913Z,99.90
2022-08-23T06:39:06.748Z,99.90
2022-08-23T06:45:26.982Z,99.90
2022-08-23T06:51:43.210Z,99.90
2022-08-23T06:58:01.408Z,99.90
2022-08-23T07:04:30.280Z,99.90
2022-08-23T07:10:43.831Z,99.90
2022-08-23T07:16:54.563Z,99.90
2022-08-23T07:22:56.378Z,99.90
2022-08-23T07:28:58.611Z,99.90
2022-08-23T07:35:00.896Z,99.90
2022-08-23T07:41:06.236Z,99.90
2022-08-23T07:47:09.076Z,99.90
2022-08-23T07:53:11.262Z,99.90
2022-08-23T07:59:14.201Z,99.90
2022-08-23T08:05:27.184Z,99.90
2022-08-23T08:11:35.224Z,99.90
2022-08-23T08:17:38.519Z,99.90
2022-08-23T08:23:46.053Z,99.90
2022-08-23T08:30:09.223Z,99.90
2022-08-23T08:36:35.127Z,99.90
2022-08-23T08:42:43.895Z,99.90
2022-08-23T08:48:55.188Z,99.90
2022-08-23T08:55:13.235Z,98.60
2022-08-23T09:01:21.656Z,97.60
2022-08-23T09:07:38.739Z,97.70
2022-08-23T09:13:57.140Z,96.40
2022-08-23T09:20:02.450Z,95.70
2022-08-23T09:26:19.056Z,95.40
2022-08-23T09:32:36.311Z,94.30
2022-08-23T09:38:56.726Z,93.60
2022-08-23T09:45:01.220Z,92.80
2022-08-23T09:51:06.943Z,92.90
2022-08-23T09:57:11.135Z,92.30
2022-08-23T10:03:23.625Z,90.80
2022-08-23T10:09:33.747Z,90.10
2022-08-23T10:15:55.111Z,89.60
2022-08-23T10:22:17.986Z,87.80
2022-08-23T10:29:15.907Z,84.20
2022-08-23T10:35:27.285Z,84.40
2022-08-23T10:41:38.555Z,83.30
2022-08-23T10:48:01.744Z,83.30
2022-08-23T10:54:13.423Z,83.40
2022-08-23T11:00:21.409Z,81.50
2022-08-23T11:06:40.044Z,77.40
2022-08-23T11:12:55.918Z,78.20
2022-08-23T11:18:58.090Z,76.40
2022-08-23T11:25:16.159Z,76.70
2022-08-23T11:31:34.780Z,73.60
2022-08-23T11:38:04.178Z,73.60
2022-08-23T11:44:13.397Z,72.80
2022-08-23T11:50:50.137Z,73.40
2022-08-23T11:57:15.692Z,70.90
2022-08-23T12:03:35.001Z,69.90
2022-08-23T12:09:37.027Z,70.10
2022-08-23T12:16:16.278Z,69.40
2022-08-23T12:22:23.703Z,70.10
2022-08-23T12:28:41.211Z,68.10
2022-08-23T12:35:03.292Z,69.60
2022-08-23T12:41:29.562Z,68.10
2022-08-23T12:47:32.280Z,69.00
2022-08-23T12:53:44.529Z,68.20
2022-08-23T12:59:53.163Z,68.20
2022-08-23T13:06:02.360Z,66.30
2022-08-23T13:12:06.995Z,65.20
2022-08-23T13:18:08.880Z,66.50
2022-08-23T13:24:38.305Z,65.60
2022-08-23T13:31:02.109Z,65.70
2022-08-23T13:37:17.786Z,65.80
2022-08-23T13:43:24.189Z,64.80
2022-08-23T13:49:29.244Z,62.90
2022-08-23T13:55:31.450Z,61.90
2022-08-23T14:01:34.383Z,63.10
2022-08-23T14:07:36.299Z,63.50
2022-08-23T14:13:38.485Z,60.40
2022-08-23T14:26:03.348Z,63.80
2022-08-23T14:32:05.613Z,61.90
2022-08-23T14:38:07.419Z,63.20
2022-08-23T14:44:09.209Z,61.00
2022-08-23T14:50:13.218Z,62.90
2022-08-23T14:56:21.553Z,61.70
2022-08-23T15:02:26.314Z,64.30
2022-08-23T15:08:28.128Z,67.90
2022-08-23T15:14:29.917Z,67.00
2022-08-23T15:20:35.715Z,62.60
2022-08-23T15:26:37.818Z,65.30
2022-08-23T15:32:39.723Z,63.70
2022-08-23T15:38:54.523Z,64.00
2022-08-23T15:44:56.351Z,62.40
2022-08-23T15:50:59.066Z,63.90
2022-08-23T15:57:00.840Z,63.40
2022-08-23T16:03:19.477Z,62.70
2022-08-23T16:09:24.593Z,63.40
2022-08-23T16:15:26.671Z,65.20
2022-08-23T16:21:30.599Z,64.00
2022-08-23T16:27:32.452Z,64.30
2022-08-23T16:33:34.215Z,64.40
2022-08-23T16:39:37.080Z,66.40
2022-08-23T16:45:38.883Z,63.90
2022-08-23T16:51:41.306Z,65.80
2022-08-23T16:57:44.802Z,65.00
2022-08-23T17:03:46.720Z,62.80
2022-08-23T17:09:48.633Z,61.10
2022-08-23T17:15:50.503Z,60.90
2022-08-23T17:21:52.260Z,62.10
2022-08-23T17:27:56.109Z,61.00
2022-08-23T17:34:03.079Z,61.30
2022-08-23T17:40:10.902Z,64.10
2022-08-23T17:46:14.935Z,64.50
2022-08-23T17:52:17.571Z,65.60
2022-08-23T17:58:19.913Z,69.30
2022-08-23T18:04:21.778Z,72.20
2022-08-23T18:10:25.383Z,74.20
2022-08-23T18:16:34.446Z,76.00
2022-08-23T18:22:37.558Z,78.10
2022-08-23T18:28:39.361Z,80.10
2022-08-23T18:34:41.288Z,82.00
2022-08-23T18:40:45.644Z,83.20
2022-08-23T18:46:47.642Z,86.00
2022-08-23T18:52:49.426Z,86.60
2022-08-23T18:58:51.778Z,85.60
2022-08-23T19:04:53.523Z,84.90
2022-08-23T19:10:55.274Z,85.40
2022-08-23T19:16:57.070Z,86.40
2022-08-23T19:22:59.270Z,86.30
2022-08-23T19:29:05.629Z,86.30
2022-08-23T19:35:08.703Z,86.40
2022-08-23T19:41:10.437Z,85.60
2022-08-23T19:47:13.413Z,86.50
2022-08-23T19:53:21.763Z,86.60
2022-08-23T19:59:33.018Z,86.70
2022-08-23T20:05:34.873Z,87.30
2022-08-23T20:11:37.184Z,88.00
2022-08-23T20:17:39.884Z,88.30
2022-08-23T20:24:00.375Z,89.20
2022-08-23T20:30:03.817Z,89.40
2022-08-23T20:36:05.599Z,90.20
2022-08-23T20:42:08.064Z,90.20
2022-08-23T20:48:11.168Z,90.40
2022-08-23T20:54:13.120Z,90.30
2022-08-23T21:00:15.427Z,90.50
2022-08-23T21:06:22.015Z,90.90
2022-08-23T21:12:23.854Z,91.30
2022-08-23T21:18:25.835Z,91.60
2022-08-23T21:24:27.710Z,92.10
2022-08-23T21:30:30.076Z,92.20
2022-08-23T21:36:32.070Z,92.60
2022-08-23T21:42:34.004Z,93.00
2022-08-23T21:48:35.852Z,93.30
2022-08-23T21:54:42.834Z,93.80
2022-08-23T22:00:45.231Z,94.30
2022-08-23T22:06:47.749Z,95.20
2022-08-23T22:12:50.243Z,95.80
2022-08-23T22:18:52.030Z,96.60
2022-08-23T22:24:54.187Z,97.20
2022-08-23T22:31:04.455Z,97.60
2022-08-23T22:37:07.359Z,98.10
2022-08-23T22:43:09.124Z,98.90
2022-08-23T22:49:10.919Z,99.90
2022-08-23T22:55:13.210Z,99.90
2022-08-23T23:01:44.300Z,99.90
2022-08-23T23:08:04.665Z,99.90
2022-08-23T23:14:07.341Z,99.90
2022-08-23T23:20:28.457Z,99.90
2022-08-23T23:26:30.277Z,99.90
2022-08-23T23:32:32.103Z,99.90
2022-08-23T23:38:34.148Z,99.90
2022-08-23T23:44:35.930Z,99.90
2022-08-23T23:50:45.329Z,99.90
2022-08-23T23:56:48.813Z,99.90
